sensor_id;sensor_type;location;lat;lon;timestamp;temperature;humidity
42135;DHT22;28312;43.460;11.810;2023-02-28T00:03:18;4.80;85.60
42135;DHT22;28312;43.460;11.810;2023-02-28T00:07:22;4.80;85.70
42135;DHT22;28312;43.460;11.810;2023-02-28T00:11:25;4.80;85.70
42135;DHT22;28312;43.460;11.810;2023-02-28T00:15:31;4.90;85.80
42135;DHT22;28312;43.460;11.810;2023-02-28T00:19:35;4.90;85.80
42135;DHT22;28312;43.460;11.810;2023-02-28T00:23:38;4.80;85.80
42135;DHT22;28312;43.460;11.810;2023-02-28T00:27:43;4.90;85.80
42135;DHT22;28312;43.460;11.810;2023-02-28T00:31:46;4.80;85.70
42135;DHT22;28312;43.460;11.810;2023-02-28T00:35:50;4.80;85.70
42135;DHT22;28312;43.460;11.810;2023-02-28T00:39:57;4.80;85.80
42135;DHT22;28312;43.460;11.810;2023-02-28T00:44:00;4.80;85.80
42135;DHT22;28312;43.460;11.810;2023-02-28T00:48:04;4.80;85.70
42135;DHT22;28312;43.460;11.810;2023-02-28T00:52:07;4.80;85.80
42135;DHT22;28312;43.460;11.810;2023-02-28T00:56:11;4.90;85.80
42135;DHT22;28312;43.460;11.810;2023-02-28T01:00:15;4.90;85.80
42135;DHT22;28312;43.460;11.810;2023-02-28T01:04:18;4.90;85.80
42135;DHT22;28312;43.460;11.810;2023-02-28T01:08:22;4.90;85.80
42135;DHT22;28312;43.460;11.810;2023-02-28T01:12:26;4.90;85.80
42135;DHT22;28312;43.460;11.810;2023-02-28T01:16:32;4.90;85.80
42135;DHT22;28312;43.460;11.810;2023-02-28T01:20:38;4.90;85.70
42135;DHT22;28312;43.460;11.810;2023-02-28T01:24:41;4.90;85.60
42135;DHT22;28312;43.460;11.810;2023-02-28T01:28:49;4.80;85.50
42135;DHT22;28312;43.460;11.810;2023-02-28T01:32:53;4.80;85.40
42135;DHT22;28312;43.460;11.810;2023-02-28T01:36:57;4.80;85.40
42135;DHT22;28312;43.460;11.810;2023-02-28T01:41:03;4.80;85.40
42135;DHT22;28312;43.460;11.810;2023-02-28T01:45:22;4.70;85.40
42135;DHT22;28312;43.460;11.810;2023-02-28T01:49:26;4.70;85.40
42135;DHT22;28312;43.460;11.810;2023-02-28T01:53:34;4.70;85.40
42135;DHT22;28312;43.460;11.810;2023-02-28T01:57:45;4.70;85.50
42135;DHT22;28312;43.460;11.810;2023-02-28T02:01:50;4.70;85.60
42135;DHT22;28312;43.460;11.810;2023-02-28T02:05:54;4.70;85.60
42135;DHT22;28312;43.460;11.810;2023-02-28T02:10:04;4.70;85.70
42135;DHT22;28312;43.460;11.810;2023-02-28T02:18:57;4.80;85.70
42135;DHT22;28312;43.460;11.810;2023-02-28T02:23:22;4.80;85.70
42135;DHT22;28312;43.460;11.810;2023-02-28T02:27:37;4.90;85.60
42135;DHT22;28312;43.460;11.810;2023-02-28T02:32:18;4.90;85.50
42135;DHT22;28312;43.460;11.810;2023-02-28T02:36:35;4.90;85.40
42135;DHT22;28312;43.460;11.810;2023-02-28T02:41:33;4.90;85.20
42135;DHT22;28312;43.460;11.810;2023-02-28T02:45:27;4.80;85.10
42135;DHT22;28312;43.460;11.810;2023-02-28T02:49:42;4.80;85.00
42135;DHT22;28312;43.460;11.810;2023-02-28T02:54:04;4.70;85.00
42135;DHT22;28312;43.460;11.810;2023-02-28T02:58:14;4.70;85.00
42135;DHT22;28312;43.460;11.810;2023-02-28T03:02:21;4.70;85.10
42135;DHT22;28312;43.460;11.810;2023-02-28T03:06:27;4.60;85.00
42135;DHT22;28312;43.460;11.810;2023-02-28T03:10:39;4.60;84.90
42135;DHT22;28312;43.460;11.810;2023-02-28T03:15:01;4.50;84.90
42135;DHT22;28312;43.460;11.810;2023-02-28T03:19:17;4.50;84.90
42135;DHT22;28312;43.460;11.810;2023-02-28T03:32:02;4.40;84.80
42135;DHT22;28312;43.460;11.810;2023-02-28T03:36:15;4.30;84.90
42135;DHT22;28312;43.460;11.810;2023-02-28T03:40:24;4.30;84.90
42135;DHT22;28312;43.460;11.810;2023-02-28T03:44:49;4.30;85.00
42135;DHT22;28312;43.460;11.810;2023-02-28T03:49:02;4.30;84.90
42135;DHT22;28312;43.460;11.810;2023-02-28T03:53:29;4.20;84.90
42135;DHT22;28312;43.460;11.810;2023-02-28T04:02:03;4.20;85.00
42135;DHT22;28312;43.460;11.810;2023-02-28T04:06:12;4.20;85.00
42135;DHT22;28312;43.460;11.810;2023-02-28T04:10:18;4.20;84.90
42135;DHT22;28312;43.460;11.810;2023-02-28T04:14:21;4.10;84.90
42135;DHT22;28312;43.460;11.810;2023-02-28T04:18:26;4.10;85.00
42135;DHT22;28312;43.460;11.810;2023-02-28T04:22:29;4.10;85.00
42135;DHT22;28312;43.460;11.810;2023-02-28T04:26:35;4.10;85.00
42135;DHT22;28312;43.460;11.810;2023-02-28T04:30:38;4.10;85.00
42135;DHT22;28312;43.460;11.810;2023-02-28T04:34:42;4.00;84.90
42135;DHT22;28312;43.460;11.810;2023-02-28T04:38:46;4.10;85.00
42135;DHT22;28312;43.460;11.810;2023-02-28T04:42:50;4.00;85.00
42135;DHT22;28312;43.460;11.810;2023-02-28T04:46:57;4.10;85.00
42135;DHT22;28312;43.460;11.810;2023-02-28T04:51:08;4.00;85.00
42135;DHT22;28312;43.460;11.810;2023-02-28T04:55:12;4.00;85.00
42135;DHT22;28312;43.460;11.810;2023-02-28T04:59:15;4.00;85.10
42135;DHT22;28312;43.460;11.810;2023-02-28T05:03:20;4.00;85.10
42135;DHT22;28312;43.460;11.810;2023-02-28T05:07:25;4.00;85.10
42135;DHT22;28312;43.460;11.810;2023-02-28T05:11:32;4.00;85.10
42135;DHT22;28312;43.460;11.810;2023-02-28T05:15:39;4.00;85.00
42135;DHT22;28312;43.460;11.810;2023-02-28T05:19:44;4.00;84.90
42135;DHT22;28312;43.460;11.810;2023-02-28T05:23:47;4.00;85.00
42135;DHT22;28312;43.460;11.810;2023-02-28T05:27:51;4.00;85.10
42135;DHT22;28312;43.460;11.810;2023-02-28T05:31:57;4.00;85.20
42135;DHT22;28312;43.460;11.810;2023-02-28T05:36:01;4.00;85.10
42135;DHT22;28312;43.460;11.810;2023-02-28T05:40:06;4.00;85.10
42135;DHT22;28312;43.460;11.810;2023-02-28T05:44:11;4.00;85.10
42135;DHT22;28312;43.460;11.810;2023-02-28T05:48:16;4.00;85.10
42135;DHT22;28312;43.460;11.810;2023-02-28T05:52:21;4.10;85.20
42135;DHT22;28312;43.460;11.810;2023-02-28T05:56:24;4.10;85.20
42135;DHT22;28312;43.460;11.810;2023-02-28T06:00:28;4.00;85.10
42135;DHT22;28312;43.460;11.810;2023-02-28T06:04:32;4.00;85.20
42135;DHT22;28312;43.460;11.810;2023-02-28T06:08:36;4.00;85.20
42135;DHT22;28312;43.460;11.810;2023-02-28T06:12:40;4.00;85.30
42135;DHT22;28312;43.460;11.810;2023-02-28T06:16:44;4.00;85.40
42135;DHT22;28312;43.460;11.810;2023-02-28T06:20:54;4.10;85.60
42135;DHT22;28312;43.460;11.810;2023-02-28T06:24:58;4.20;86.00
42135;DHT22;28312;43.460;11.810;2023-02-28T06:29:03;4.40;86.20
42135;DHT22;28312;43.460;11.810;2023-02-28T06:33:07;4.70;87.00
42135;DHT22;28312;43.460;11.810;2023-02-28T06:37:12;5.20;87.90
42135;DHT22;28312;43.460;11.810;2023-02-28T06:41:15;5.80;87.90
42135;DHT22;28312;43.460;11.810;2023-02-28T06:45:19;6.20;88.10
42135;DHT22;28312;43.460;11.810;2023-02-28T06:49:22;6.80;87.80
42135;DHT22;28312;43.460;11.810;2023-02-28T06:53:26;7.40;88.00
42135;DHT22;28312;43.460;11.810;2023-02-28T06:57:31;8.20;88.80
42135;DHT22;28312;43.460;11.810;2023-02-28T07:01:35;9.10;88.30
42135;DHT22;28312;43.460;11.810;2023-02-28T07:05:39;9.80;87.30
42135;DHT22;28312;43.460;11.810;2023-02-28T07:09:43;10.10;86.10
42135;DHT22;28312;43.460;11.810;2023-02-28T07:13:46;10.00;85.60
42135;DHT22;28312;43.460;11.810;2023-02-28T07:17:50;9.90;85.90
42135;DHT22;28312;43.460;11.810;2023-02-28T07:21:54;10.20;85.40
42135;DHT22;28312;43.460;11.810;2023-02-28T07:25:58;10.30;83.00
42135;DHT22;28312;43.460;11.810;2023-02-28T07:30:02;10.50;82.10
42135;DHT22;28312;43.460;11.810;2023-02-28T07:34:06;10.70;82.10
42135;DHT22;28312;43.460;11.810;2023-02-28T07:38:10;11.20;82.10
42135;DHT22;28312;43.460;11.810;2023-02-28T07:42:18;11.60;79.00
42135;DHT22;28312;43.460;11.810;2023-02-28T07:46:22;11.50;77.30
42135;DHT22;28312;43.460;11.810;2023-02-28T07:50:26;11.20;76.90
42135;DHT22;28312;43.460;11.810;2023-02-28T07:54:38;11.10;77.20
42135;DHT22;28312;43.460;11.810;2023-02-28T07:58:41;10.90;74.60
42135;DHT22;28312;43.460;11.810;2023-02-28T08:02:45;11.00;75.80
42135;DHT22;28312;43.460;11.810;2023-02-28T08:06:48;11.10;73.80
42135;DHT22;28312;43.460;11.810;2023-02-28T08:10:57;11.00;74.30
42135;DHT22;28312;43.460;11.810;2023-02-28T08:15:02;11.70;75.90
42135;DHT22;28312;43.460;11.810;2023-02-28T08:19:06;12.50;73.20
42135;DHT22;28312;43.460;11.810;2023-02-28T08:23:09;12.90;72.00
42135;DHT22;28312;43.460;11.810;2023-02-28T08:27:13;13.60;71.80
42135;DHT22;28312;43.460;11.810;2023-02-28T08:31:17;14.10;68.90
42135;DHT22;28312;43.460;11.810;2023-02-28T08:35:21;14.40;66.40
42135;DHT22;28312;43.460;11.810;2023-02-28T08:39:25;14.20;63.70
42135;DHT22;28312;43.460;11.810;2023-02-28T08:43:29;14.30;64.60
42135;DHT22;28312;43.460;11.810;2023-02-28T08:47:32;15.00;65.40
42135;DHT22;28312;43.460;11.810;2023-02-28T08:51:36;14.90;62.30
42135;DHT22;28312;43.460;11.810;2023-02-28T08:55:39;14.10;62.10
42135;DHT22;28312;43.460;11.810;2023-02-28T08:59:43;13.30;61.50
42135;DHT22;28312;43.460;11.810;2023-02-28T09:03:48;13.10;62.90
42135;DHT22;28312;43.460;11.810;2023-02-28T09:07:52;13.10;62.00
42135;DHT22;28312;43.460;11.810;2023-02-28T09:11:56;12.80;61.30
42135;DHT22;28312;43.460;11.810;2023-02-28T09:16:01;12.90;62.30
42135;DHT22;28312;43.460;11.810;2023-02-28T09:20:05;13.20;60.70
42135;DHT22;28312;43.460;11.810;2023-02-28T09:24:09;12.90;60.50
42135;DHT22;28312;43.460;11.810;2023-02-28T09:28:15;12.90;60.80
42135;DHT22;28312;43.460;11.810;2023-02-28T09:32:19;12.70;59.70
42135;DHT22;28312;43.460;11.810;2023-02-28T09:36:25;12.40;60.00
42135;DHT22;28312;43.460;11.810;2023-02-28T09:40:53;12.20;60.90
42135;DHT22;28312;43.460;11.810;2023-02-28T09:44:59;12.30;61.80
42135;DHT22;28312;43.460;11.810;2023-02-28T09:49:07;12.60;61.70
42135;DHT22;28312;43.460;11.810;2023-02-28T09:53:32;13.00;61.60
42135;DHT22;28312;43.460;11.810;2023-02-28T09:57:42;13.40;61.20
42135;DHT22;28312;43.460;11.810;2023-02-28T10:10:19;12.60;58.20
42135;DHT22;28312;43.460;11.810;2023-02-28T10:14:26;12.20;58.40
42135;DHT22;28312;43.460;11.810;2023-02-28T10:18:35;11.90;58.80
42135;DHT22;28312;43.460;11.810;2023-02-28T10:22:52;11.70;59.40
42135;DHT22;28312;43.460;11.810;2023-02-28T10:31:20;11.50;60.20
42135;DHT22;28312;43.460;11.810;2023-02-28T10:35:27;11.90;61.40
42135;DHT22;28312;43.460;11.810;2023-02-28T10:39:46;12.90;60.20
42135;DHT22;28312;43.460;11.810;2023-02-28T10:43:49;13.70;59.80
42135;DHT22;28312;43.460;11.810;2023-02-28T10:47:59;14.20;57.20
42135;DHT22;28312;43.460;11.810;2023-02-28T10:52:03;14.60;56.70
42135;DHT22;28312;43.460;11.810;2023-02-28T10:56:18;14.80;56.50
42135;DHT22;28312;43.460;11.810;2023-02-28T11:00:25;15.20;56.60
42135;DHT22;28312;43.460;11.810;2023-02-28T11:08:33;15.70;55.50
42135;DHT22;28312;43.460;11.810;2023-02-28T11:12:38;15.60;54.80
42135;DHT22;28312;43.460;11.810;2023-02-28T11:16:54;15.30;55.10
42135;DHT22;28312;43.460;11.810;2023-02-28T11:21:01;15.20;55.60
42135;DHT22;28312;43.460;11.810;2023-02-28T11:25:25;15.00;54.60
42135;DHT22;28312;43.460;11.810;2023-02-28T11:29:33;14.70;55.50
42135;DHT22;28312;43.460;11.810;2023-02-28T11:33:50;14.80;56.30
42135;DHT22;28312;43.460;11.810;2023-02-28T11:37:54;14.90;56.00
42135;DHT22;28312;43.460;11.810;2023-02-28T11:46:51;15.10;54.90
42135;DHT22;28312;43.460;11.810;2023-02-28T11:51:12;14.70;54.40
42135;DHT22;28312;43.460;11.810;2023-02-28T11:55:35;14.70;55.10
42135;DHT22;28312;43.460;11.810;2023-02-28T12:00:00;14.60;54.70
42135;DHT22;28312;43.460;11.810;2023-02-28T12:08:49;14.20;55.50
42135;DHT22;28312;43.460;11.810;2023-02-28T12:13:21;14.50;55.40
42135;DHT22;28312;43.460;11.810;2023-02-28T12:30:21;13.20;54.80
42135;DHT22;28312;43.460;11.810;2023-02-28T12:34:31;13.00;55.50
42135;DHT22;28312;43.460;11.810;2023-02-28T12:38:43;12.90;55.50
42135;DHT22;28312;43.460;11.810;2023-02-28T12:43:01;12.70;55.80
42135;DHT22;28312;43.460;11.810;2023-02-28T12:47:12;12.50;56.00
42135;DHT22;28312;43.460;11.810;2023-02-28T12:51:17;12.30;56.40
42135;DHT22;28312;43.460;11.810;2023-02-28T12:59:46;12.20;57.20
42135;DHT22;28312;43.460;11.810;2023-02-28T13:12:27;11.90;57.70
42135;DHT22;28312;43.460;11.810;2023-02-28T13:16:51;11.70;58.20
42135;DHT22;28312;43.460;11.810;2023-02-28T13:20:56;11.70;58.40
42135;DHT22;28312;43.460;11.810;2023-02-28T13:25:00;11.60;58.30
42135;DHT22;28312;43.460;11.810;2023-02-28T13:37:34;11.20;58.90
42135;DHT22;28312;43.460;11.810;2023-02-28T13:41:43;11.00;58.80
42135;DHT22;28312;43.460;11.810;2023-02-28T13:46:10;10.90;59.20
42135;DHT22;28312;43.460;11.810;2023-02-28T13:59:59;10.70;61.00
42135;DHT22;28312;43.460;11.810;2023-02-28T14:08:22;11.30;61.50
42135;DHT22;28312;43.460;11.810;2023-02-28T14:17:03;11.20;59.70
42135;DHT22;28312;43.460;11.810;2023-02-28T14:30:01;11.00;61.00
42135;DHT22;28312;43.460;11.810;2023-02-28T14:38:31;11.40;60.40
42135;DHT22;28312;43.460;11.810;2023-02-28T14:42:37;11.50;60.30
42135;DHT22;28312;43.460;11.810;2023-02-28T14:46:46;11.50;60.30
42135;DHT22;28312;43.460;11.810;2023-02-28T14:50:52;11.60;60.40
42135;DHT22;28312;43.460;11.810;2023-02-28T14:55:03;11.90;59.80
42135;DHT22;28312;43.460;11.810;2023-02-28T14:59:42;12.20;60.30
42135;DHT22;28312;43.460;11.810;2023-02-28T15:03:47;12.50;59.20
42135;DHT22;28312;43.460;11.810;2023-02-28T15:08:03;12.70;58.70
42135;DHT22;28312;43.460;11.810;2023-02-28T15:12:07;12.90;58.40
42135;DHT22;28312;43.460;11.810;2023-02-28T15:20:35;12.80;57.20
42135;DHT22;28312;43.460;11.810;2023-02-28T15:24:47;12.60;56.10
42135;DHT22;28312;43.460;11.810;2023-02-28T15:28:58;12.20;55.60
42135;DHT22;28312;43.460;11.810;2023-02-28T15:33:23;11.80;56.30
42135;DHT22;28312;43.460;11.810;2023-02-28T15:37:48;11.60;57.40
42135;DHT22;28312;43.460;11.810;2023-02-28T15:41:51;11.60;57.50
42135;DHT22;28312;43.460;11.810;2023-02-28T15:50:05;11.50;58.30
42135;DHT22;28312;43.460;11.810;2023-02-28T15:54:20;11.30;57.40
42135;DHT22;28312;43.460;11.810;2023-02-28T15:58:25;11.10;58.30
42135;DHT22;28312;43.460;11.810;2023-02-28T16:06:39;10.50;58.00
42135;DHT22;28312;43.460;11.810;2023-02-28T16:10:45;10.20;58.30
42135;DHT22;28312;43.460;11.810;2023-02-28T16:14:51;9.90;58.80
42135;DHT22;28312;43.460;11.810;2023-02-28T16:18:55;9.60;59.40
42135;DHT22;28312;43.460;11.810;2023-02-28T16:22:59;9.30;59.80
42135;DHT22;28312;43.460;11.810;2023-02-28T16:27:04;9.20;60.20
42135;DHT22;28312;43.460;11.810;2023-02-28T16:31:09;9.00;60.60
42135;DHT22;28312;43.460;11.810;2023-02-28T16:35:18;8.80;60.90
42135;DHT22;28312;43.460;11.810;2023-02-28T16:39:22;8.70;61.30
42135;DHT22;28312;43.460;11.810;2023-02-28T16:43:26;8.60;61.50
42135;DHT22;28312;43.460;11.810;2023-02-28T16:47:31;8.40;61.70
42135;DHT22;28312;43.460;11.810;2023-02-28T16:51:36;8.30;62.00
42135;DHT22;28312;43.460;11.810;2023-02-28T16:55:39;8.20;62.10
42135;DHT22;28312;43.460;11.810;2023-02-28T16:59:43;8.20;62.50
42135;DHT22;28312;43.460;11.810;2023-02-28T17:03:47;8.10;62.80
42135;DHT22;28312;43.460;11.810;2023-02-28T17:07:50;8.00;63.20
42135;DHT22;28312;43.460;11.810;2023-02-28T17:11:54;8.00;63.30
42135;DHT22;28312;43.460;11.810;2023-02-28T17:15:59;7.90;63.60
42135;DHT22;28312;43.460;11.810;2023-02-28T17:20:04;7.90;63.90
42135;DHT22;28312;43.460;11.810;2023-02-28T17:24:09;7.90;64.10
42135;DHT22;28312;43.460;11.810;2023-02-28T17:28:21;7.80;64.20
42135;DHT22;28312;43.460;11.810;2023-02-28T17:32:25;7.80;64.50
42135;DHT22;28312;43.460;11.810;2023-02-28T17:36:28;7.80;64.50
42135;DHT22;28312;43.460;11.810;2023-02-28T17:40:33;7.80;64.80
42135;DHT22;28312;43.460;11.810;2023-02-28T17:44:36;7.70;64.70
42135;DHT22;28312;43.460;11.810;2023-02-28T17:48:41;7.70;64.80
42135;DHT22;28312;43.460;11.810;2023-02-28T17:52:45;7.70;64.90
42135;DHT22;28312;43.460;11.810;2023-02-28T17:56:49;7.70;65.10
42135;DHT22;28312;43.460;11.810;2023-02-28T18:00:52;7.70;65.10
42135;DHT22;28312;43.460;11.810;2023-02-28T18:04:57;7.60;65.10
42135;DHT22;28312;43.460;11.810;2023-02-28T18:09:01;7.60;65.50
42135;DHT22;28312;43.460;11.810;2023-02-28T18:13:07;7.60;65.50
42135;DHT22;28312;43.460;11.810;2023-02-28T18:17:11;7.60;65.60
42135;DHT22;28312;43.460;11.810;2023-02-28T18:21:16;7.60;65.60
42135;DHT22;28312;43.460;11.810;2023-02-28T18:25:21;7.60;65.70
42135;DHT22;28312;43.460;11.810;2023-02-28T18:29:27;7.60;65.80
42135;DHT22;28312;43.460;11.810;2023-02-28T18:33:32;7.60;65.90
42135;DHT22;28312;43.460;11.810;2023-02-28T18:37:36;7.60;65.90
42135;DHT22;28312;43.460;11.810;2023-02-28T18:41:40;7.60;65.90
42135;DHT22;28312;43.460;11.810;2023-02-28T18:45:46;7.60;66.00
42135;DHT22;28312;43.460;11.810;2023-02-28T18:49:50;7.60;66.30
42135;DHT22;28312;43.460;11.810;2023-02-28T18:53:54;7.60;66.30
42135;DHT22;28312;43.460;11.810;2023-02-28T18:57:57;7.60;66.30
42135;DHT22;28312;43.460;11.810;2023-02-28T19:02:02;7.60;66.40
42135;DHT22;28312;43.460;11.810;2023-02-28T19:06:08;7.60;66.40
42135;DHT22;28312;43.460;11.810;2023-02-28T19:10:13;7.60;66.40
42135;DHT22;28312;43.460;11.810;2023-02-28T19:14:17;7.60;66.50
42135;DHT22;28312;43.460;11.810;2023-02-28T19:18:23;7.60;66.60
42135;DHT22;28312;43.460;11.810;2023-02-28T19:22:26;7.60;66.60
42135;DHT22;28312;43.460;11.810;2023-02-28T19:26:32;7.70;66.70
42135;DHT22;28312;43.460;11.810;2023-02-28T19:30:37;7.70;66.60
42135;DHT22;28312;43.460;11.810;2023-02-28T19:34:44;7.60;66.60
42135;DHT22;28312;43.460;11.810;2023-02-28T19:38:49;7.70;66.70
42135;DHT22;28312;43.460;11.810;2023-02-28T19:42:53;7.60;66.80
42135;DHT22;28312;43.460;11.810;2023-02-28T19:46:57;7.60;66.90
42135;DHT22;28312;43.460;11.810;2023-02-28T19:51:03;7.60;66.80
42135;DHT22;28312;43.460;11.810;2023-02-28T19:55:08;7.50;66.80
42135;DHT22;28312;43.460;11.810;2023-02-28T19:59:13;7.50;66.80
42135;DHT22;28312;43.460;11.810;2023-02-28T20:03:33;7.50;66.90
42135;DHT22;28312;43.460;11.810;2023-02-28T20:07:37;7.50;67.00
42135;DHT22;28312;43.460;11.810;2023-02-28T20:11:42;7.50;67.20
42135;DHT22;28312;43.460;11.810;2023-02-28T20:15:48;7.50;67.10
42135;DHT22;28312;43.460;11.810;2023-02-28T20:19:53;7.50;67.20
42135;DHT22;28312;43.460;11.810;2023-02-28T20:23:57;7.40;67.20
42135;DHT22;28312;43.460;11.810;2023-02-28T20:28:01;7.40;67.30
42135;DHT22;28312;43.460;11.810;2023-02-28T20:32:05;7.30;67.30
42135;DHT22;28312;43.460;11.810;2023-02-28T20:36:11;7.30;67.60
42135;DHT22;28312;43.460;11.810;2023-02-28T20:40:17;7.30;67.90
42135;DHT22;28312;43.460;11.810;2023-02-28T20:44:21;7.40;68.00
42135;DHT22;28312;43.460;11.810;2023-02-28T20:48:25;7.50;68.00
42135;DHT22;28312;43.460;11.810;2023-02-28T20:52:29;7.50;68.10
42135;DHT22;28312;43.460;11.810;2023-02-28T20:56:33;7.60;68.00
42135;DHT22;28312;43.460;11.810;2023-02-28T21:00:37;7.60;68.00
42135;DHT22;28312;43.460;11.810;2023-02-28T21:04:41;7.70;68.00
42135;DHT22;28312;43.460;11.810;2023-02-28T21:08:45;7.70;68.00
42135;DHT22;28312;43.460;11.810;2023-02-28T21:12:49;7.70;68.00
42135;DHT22;28312;43.460;11.810;2023-02-28T21:16:56;7.70;68.00
42135;DHT22;28312;43.460;11.810;2023-02-28T21:21:05;7.70;68.20
42135;DHT22;28312;43.460;11.810;2023-02-28T21:25:09;7.70;68.30
42135;DHT22;28312;43.460;11.810;2023-02-28T21:29:13;7.70;68.40
42135;DHT22;28312;43.460;11.810;2023-02-28T21:33:17;7.80;68.40
42135;DHT22;28312;43.460;11.810;2023-02-28T21:37:28;7.80;68.40
42135;DHT22;28312;43.460;11.810;2023-02-28T21:41:33;7.80;68.40
42135;DHT22;28312;43.460;11.810;2023-02-28T21:45:38;7.80;68.30
42135;DHT22;28312;43.460;11.810;2023-02-28T21:49:42;7.80;68.30
42135;DHT22;28312;43.460;11.810;2023-02-28T21:53:47;7.80;68.30
42135;DHT22;28312;43.460;11.810;2023-02-28T21:57:50;7.80;68.30
42135;DHT22;28312;43.460;11.810;2023-02-28T22:01:54;7.80;68.30
42135;DHT22;28312;43.460;11.810;2023-02-28T22:05:58;7.80;68.30
42135;DHT22;28312;43.460;11.810;2023-02-28T22:10:03;7.80;68.30
42135;DHT22;28312;43.460;11.810;2023-02-28T22:14:08;7.80;68.30
42135;DHT22;28312;43.460;11.810;2023-02-28T22:18:14;7.90;68.20
42135;DHT22;28312;43.460;11.810;2023-02-28T22:22:18;7.80;68.10
42135;DHT22;28312;43.460;11.810;2023-02-28T22:26:22;7.80;68.20
42135;DHT22;28312;43.460;11.810;2023-02-28T22:30:25;7.90;68.30
42135;DHT22;28312;43.460;11.810;2023-02-28T22:34:31;7.90;68.20
42135;DHT22;28312;43.460;11.810;2023-02-28T22:38:34;8.00;68.20
42135;DHT22;28312;43.460;11.810;2023-02-28T22:42:38;7.90;68.20
42135;DHT22;28312;43.460;11.810;2023-02-28T22:46:44;7.90;68.10
42135;DHT22;28312;43.460;11.810;2023-02-28T22:50:47;7.80;68.10
42135;DHT22;28312;43.460;11.810;2023-02-28T22:54:51;7.80;68.10
42135;DHT22;28312;43.460;11.810;2023-02-28T22:58:57;7.80;68.10
42135;DHT22;28312;43.460;11.810;2023-02-28T23:03:00;7.80;68.20
42135;DHT22;28312;43.460;11.810;2023-02-28T23:07:04;7.80;68.20
42135;DHT22;28312;43.460;11.810;2023-02-28T23:11:09;7.70;68.20
42135;DHT22;28312;43.460;11.810;2023-02-28T23:15:13;7.70;68.20
42135;DHT22;28312;43.460;11.810;2023-02-28T23:19:20;7.70;68.20
42135;DHT22;28312;43.460;11.810;2023-02-28T23:23:26;7.70;68.30
42135;DHT22;28312;43.460;11.810;2023-02-28T23:27:29;7.70;68.50
42135;DHT22;28312;43.460;11.810;2023-02-28T23:31:33;7.70;68.50
42135;DHT22;28312;43.460;11.810;2023-02-28T23:35:36;7.70;68.40
42135;DHT22;28312;43.460;11.810;2023-02-28T23:39:40;7.70;68.40
42135;DHT22;28312;43.460;11.810;2023-02-28T23:43:43;7.70;68.40
42135;DHT22;28312;43.460;11.810;2023-02-28T23:47:47;7.70;68.60
42135;DHT22;28312;43.460;11.810;2023-02-28T23:51:51;7.70;68.70
42135;DHT22;28312;43.460;11.810;2023-02-28T23:55:57;7.70;68.70
